createdAt,value
2016-07-06T00:00:31.408Z,92.47
2016-07-06T00:01:31.387Z,93.05
2016-07-06T00:02:31.361Z,93.1
2016-07-06T00:03:31.985Z,93.38
2016-07-06T00:04:31.974Z,93.48
2016-07-06T00:05:31.969Z,93.68
2016-07-06T00:06:31.952Z,92.91
2016-07-06T00:07:31.933Z,93.87
2016-07-06T00:08:31.917Z,93.77
2016-07-06T00:09:31.909Z,93.68
2016-07-06T00:10:31.257Z,93
2016-07-06T00:11:31.243Z,93.1
2016-07-06T00:12:31.232Z,93.48
2016-07-06T00:13:31.838Z,94.06
2016-07-06T00:14:31.202Z,95.21
2016-07-06T00:15:31.821Z,95.07
2016-07-06T00:16:31.804Z,95.31
2016-07-06T00:17:31.796Z,95.12
2016-07-06T00:18:31.137Z,94.98
2016-07-06T00:19:31.121Z,95.12
2016-07-06T00:20:31.757Z,94.92
2016-07-06T00:21:31.731Z,94.64
2016-07-06T00:22:31.084Z,95.17
2016-07-06T00:23:31.080Z,95.17
2016-07-06T00:24:31.678Z,94.83
2016-07-06T00:25:31.037Z,94.25
2016-07-06T00:26:31.661Z,94.25
2016-07-06T00:27:31.636Z,94.64
2016-07-06T00:28:31.618Z,95.31
2016-07-06T00:29:30.993Z,95.84
2016-07-06T00:30:31.601Z,95.26
2016-07-06T00:31:31.636Z,95.21
2016-07-06T00:32:31.579Z,94.92
2016-07-06T00:33:30.928Z,94.25
2016-07-06T00:34:31.548Z,93.58
2016-07-06T00:35:31.522Z,94.73
2016-07-06T00:36:31.518Z,95.02
2016-07-06T00:37:30.855Z,94.92
2016-07-06T00:38:31.485Z,94.73
2016-07-06T00:39:31.473Z,94.06
2016-07-06T00:40:30.824Z,93.29
2016-07-06T00:41:30.818Z,93.19
2016-07-06T00:42:31.434Z,93.96
2016-07-06T00:43:30.770Z,94.83
2016-07-06T00:44:31.403Z,94.64
2016-07-06T00:45:31.388Z,93.87
2016-07-06T00:46:31.371Z,93.96
2016-07-06T00:47:30.731Z,94.06
2016-07-06T00:48:31.347Z,95.21
2016-07-06T00:49:30.698Z,96.42
2016-07-06T00:50:31.319Z,96.51
2016-07-06T00:51:30.661Z,95.07
2016-07-06T00:52:31.278Z,94.64
2016-07-06T00:53:31.262Z,95.02
2016-07-06T00:54:30.616Z,94.92
2016-07-06T00:55:30.607Z,94.25
2016-07-06T00:56:30.592Z,94.25
2016-07-06T00:57:31.215Z,93.87
2016-07-06T00:58:31.203Z,93.77
2016-07-06T00:59:31.190Z,93.77
2016-07-06T01:00:30.540Z,93.87
2016-07-06T01:01:30.524Z,94.06
2016-07-06T01:02:30.514Z,94.35
2016-07-06T01:03:31.127Z,94.35
2016-07-06T01:04:30.487Z,93.77
2016-07-06T01:05:31.104Z,93.68
2016-07-06T01:06:30.453Z,94.06
2016-07-06T01:07:30.441Z,93.68
2016-07-06T01:08:31.059Z,93.29
2016-07-06T01:09:31.221Z,92.71
2016-07-06T01:10:31.191Z,93.15
2016-07-06T01:11:31.192Z,92.76
2016-07-06T01:12:30.369Z,93.43
2016-07-06T01:13:30.350Z,94.25
2016-07-06T01:14:30.972Z,94.35
2016-07-06T01:15:30.942Z,93.77
2016-07-06T01:16:30.928Z,94.92
2016-07-06T01:17:30.915Z,94.45
2016-07-06T01:18:30.267Z,93.87
2016-07-06T01:19:30.889Z,93.48
2016-07-06T01:20:30.897Z,93.68
2016-07-06T01:21:30.867Z,92.81
2016-07-06T01:22:30.852Z,93.72
2016-07-06T01:23:30.211Z,94.35
2016-07-06T01:24:30.811Z,93.87
2016-07-06T01:25:30.800Z,94.06
2016-07-06T01:26:30.798Z,94.45
2016-07-06T01:27:30.766Z,93.96
2016-07-06T01:28:30.757Z,94.35
2016-07-06T01:29:30.900Z,94.64
2016-07-06T01:30:30.106Z,94.3
2016-07-06T01:31:30.718Z,94.92
2016-07-06T01:32:30.081Z,94.15
2016-07-06T01:33:30.691Z,94.15
2016-07-06T01:34:30.048Z,93.87
2016-07-06T01:35:30.664Z,93.77
2016-07-06T01:36:30.649Z,94.25
2016-07-06T01:37:30.631Z,94.35
2016-07-06T01:38:30.625Z,94.35
2016-07-06T01:39:30.613Z,94.45
2016-07-06T01:40:29.960Z,94.88
2016-07-06T01:41:30.582Z,94.35
2016-07-06T01:42:30.563Z,94.06
2016-07-06T01:43:30.544Z,94.25
2016-07-06T01:44:29.899Z,94.35
2016-07-06T01:45:30.522Z,94.06
2016-07-06T01:46:30.512Z,93.77
2016-07-06T01:47:30.493Z,93.87
2016-07-06T01:48:29.849Z,93.77
2016-07-06T01:49:29.830Z,93.77
2016-07-06T01:50:30.450Z,93.87
2016-07-06T01:51:29.802Z,93.77
2016-07-06T01:52:29.785Z,94.35
2016-07-06T01:53:30.408Z,94.35
2016-07-06T01:54:30.386Z,93.68
2016-07-06T01:55:30.368Z,93.87
2016-07-06T01:56:30.359Z,94.25
2016-07-06T01:57:29.706Z,93.68
2016-07-06T01:58:30.330Z,94.06
2016-07-06T01:59:30.334Z,94.06
2016-07-06T02:00:30.314Z,94.15
2016-07-06T02:01:29.658Z,93.96
2016-07-06T02:02:30.283Z,94.35
2016-07-06T02:03:29.631Z,93.48
2016-07-06T02:04:30.241Z,94.25
2016-07-06T02:05:29.607Z,95.07
2016-07-06T02:06:29.590Z,95.84
2016-07-06T02:07:29.569Z,95.65
2016-07-06T02:08:30.191Z,96.03
2016-07-06T02:09:30.165Z,95.6
2016-07-06T02:10:30.154Z,95.45
2016-07-06T02:11:30.143Z,95.65
2016-07-06T02:12:29.497Z,95.65
2016-07-06T02:13:30.111Z,95.36
2016-07-06T02:14:30.104Z,96.13
2016-07-06T02:15:30.089Z,96.37
2016-07-06T02:16:30.073Z,96.8
2016-07-06T02:17:30.063Z,96.75
2016-07-06T02:18:29.415Z,97.52
2016-07-06T02:19:30.028Z,97.04
2016-07-06T02:20:29.381Z,96.94
2016-07-06T02:21:30.023Z,96.56
2016-07-06T02:22:29.985Z,96.37
2016-07-06T02:23:29.974Z,95.84
2016-07-06T02:24:29.959Z,95.75
2016-07-06T02:25:29.942Z,95.94
2016-07-06T02:26:29.924Z,96.13
2016-07-06T02:27:29.915Z,96.08
2016-07-06T02:28:29.264Z,96.22
2016-07-06T02:29:29.250Z,96.66
2016-07-06T02:30:29.879Z,97.42
2016-07-06T02:31:29.214Z,97.14
2016-07-06T02:32:29.833Z,96.85
2016-07-06T02:33:29.187Z,96.56
2016-07-06T02:34:29.809Z,96.66
2016-07-06T02:35:29.160Z,96.47
2016-07-06T02:36:29.153Z,95.7
2016-07-06T02:37:29.760Z,96.32
2016-07-06T02:38:29.116Z,95.84
2016-07-06T02:39:29.743Z,95.89
2016-07-06T02:40:29.724Z,96.75
2016-07-06T02:41:29.704Z,96.37
2016-07-06T02:42:29.072Z,96.47
2016-07-06T02:43:29.679Z,96.94
2016-07-06T02:44:29.030Z,96.37
2016-07-06T02:45:29.013Z,95.89
2016-07-06T02:46:29.634Z,97.04
2016-07-06T02:47:28.985Z,96.27
2016-07-06T02:48:29.609Z,95.89
2016-07-06T02:49:29.577Z,96.37
2016-07-06T02:50:29.573Z,97.33
2016-07-06T02:51:29.552Z,96.85
2016-07-06T02:52:28.910Z,96.85
2016-07-06T02:53:28.900Z,96.66
2016-07-06T02:54:28.884Z,97.33
2016-07-06T02:55:29.500Z,97.04
2016-07-06T02:56:29.487Z,97.04
2016-07-06T02:57:29.469Z,96.27
2016-07-06T02:58:29.463Z,96.56
2016-07-06T02:59:28.810Z,96.37
2016-07-06T03:00:29.426Z,95.84
2016-07-06T03:01:29.417Z,96.75
2016-07-06T03:02:28.770Z,96.47
2016-07-06T03:03:29.382Z,96.94
2016-07-06T03:04:29.375Z,96.94
2016-07-06T03:05:28.727Z,96.75
2016-07-06T03:06:29.340Z,96.66
2016-07-06T03:07:29.332Z,97.04
2016-07-06T03:08:28.675Z,97.71
2016-07-06T03:09:29.295Z,97.96
2016-07-06T03:10:28.659Z,97.42
2016-07-06T03:11:28.637Z,96.85
2016-07-06T03:12:29.338Z,96.94
2016-07-06T03:13:28.606Z,96.85
2016-07-06T03:14:29.218Z,96.94
2016-07-06T03:15:29.201Z,96.85
2016-07-06T03:16:28.550Z,96.75
2016-07-06T03:17:29.169Z,96.17
2016-07-06T03:18:29.152Z,96.17
2016-07-06T03:19:29.147Z,95.94
2016-07-06T03:20:29.128Z,95.65
2016-07-06T03:21:28.483Z,96.22
2016-07-06T03:22:29.098Z,95.79
2016-07-06T03:23:29.089Z,95.84
2016-07-06T03:24:28.434Z,96.22
2016-07-06T03:25:29.063Z,96.56
2016-07-06T03:26:29.054Z,95.89
2016-07-06T03:27:29.036Z,95.79
2016-07-06T03:28:29.021Z,96.85
2016-07-06T03:29:29.011Z,96.17
2016-07-06T03:30:28.994Z,96.56
2016-07-06T03:31:28.976Z,96.08
2016-07-06T03:32:28.965Z,95.79
2016-07-06T03:33:28.320Z,96.37
2016-07-06T03:34:28.931Z,95.6
2016-07-06T03:35:28.916Z,96.37
2016-07-06T03:36:28.275Z,95.79
2016-07-06T03:37:28.258Z,95.79
2016-07-06T03:38:28.873Z,95.7
2016-07-06T03:39:28.860Z,95.98
2016-07-06T03:40:28.846Z,96.27
2016-07-06T03:41:28.839Z,96.47
2016-07-06T03:42:28.820Z,96.17
2016-07-06T03:43:28.802Z,96.08
2016-07-06T03:44:28.784Z,96.37
2016-07-06T03:45:28.768Z,96.27
2016-07-06T03:46:28.137Z,95.89
2016-07-06T03:47:28.111Z,96.27
2016-07-06T03:48:28.718Z,95.5
2016-07-06T03:49:28.704Z,96.47
2016-07-06T03:50:28.690Z,96.27
2016-07-06T03:51:28.676Z,96.27
2016-07-06T03:52:28.042Z,95.98
2016-07-06T03:53:28.019Z,96.47
2016-07-06T03:54:28.005Z,97.14
2016-07-06T03:55:28.632Z,96.94
2016-07-06T03:56:27.973Z,96.37
2016-07-06T03:57:28.595Z,97.04
2016-07-06T03:58:27.943Z,97.14
2016-07-06T03:59:27.922Z,97.24
2016-07-06T04:00:27.909Z,97.33
2016-07-06T04:01:27.896Z,98.05
2016-07-06T04:02:28.516Z,97.76
2016-07-06T04:03:28.491Z,97.57
2016-07-06T04:04:27.858Z,97.96
2016-07-06T04:05:27.850Z,98.05
2016-07-06T04:06:27.832Z,98.14
2016-07-06T04:07:28.440Z,97.66
2016-07-06T04:08:28.432Z,96.99
2016-07-06T04:09:28.416Z,96.94
2016-07-06T04:10:28.398Z,96.94
2016-07-06T04:11:28.391Z,96.85
2016-07-06T04:12:28.380Z,96.27
2016-07-06T04:13:27.719Z,96.75
2016-07-06T04:14:28.337Z,97.42
2016-07-06T04:15:28.330Z,97.24
2016-07-06T04:16:27.682Z,96.94
2016-07-06T04:17:27.654Z,97.04
2016-07-06T04:18:27.660Z,97.24
2016-07-06T04:19:28.268Z,97.76
2016-07-06T04:20:27.619Z,97.96
2016-07-06T04:21:28.244Z,97.66
2016-07-06T04:22:27.595Z,98.05
2016-07-06T04:23:28.208Z,97.52
2016-07-06T04:24:27.562Z,97.86
2016-07-06T04:25:27.546Z,97.76
2016-07-06T04:26:27.533Z,96.99
2016-07-06T04:27:28.146Z,96.99
2016-07-06T04:28:28.130Z,96.89
2016-07-06T04:29:28.108Z,96.99
2016-07-06T04:30:27.470Z,97.47
2016-07-06T04:31:28.095Z,97.57
2016-07-06T04:32:28.073Z,97.57
2016-07-06T04:33:28.057Z,97.57
2016-07-06T04:34:27.412Z,97.86
2016-07-06T04:35:28.036Z,98.91
2016-07-06T04:36:28.033Z,98.43
2016-07-06T04:37:28.006Z,98.67
2016-07-06T04:38:27.987Z,98.67
2016-07-06T04:39:27.351Z,98.29
2016-07-06T04:40:27.314Z,98.1
2016-07-06T04:41:27.933Z,98.24
2016-07-06T04:42:27.927Z,97.96
2016-07-06T04:43:27.276Z,97.57
2016-07-06T04:44:27.902Z,96.99
2016-07-06T04:45:27.250Z,97.38
2016-07-06T04:46:27.854Z,96.51
2016-07-06T04:47:27.860Z,96.7
2016-07-06T04:48:27.854Z,96.8
2016-07-06T04:49:27.192Z,96.37
2016-07-06T04:50:27.173Z,96.37
2016-07-06T04:51:27.796Z,96.66
2016-07-06T04:52:27.782Z,96.37
2016-07-06T04:53:27.754Z,96.27
2016-07-06T04:54:27.114Z,95.89
2016-07-06T04:55:27.099Z,96.27
2016-07-06T04:56:27.720Z,96.27
2016-07-06T04:57:27.079Z,96.66
2016-07-06T04:58:27.692Z,97.19
2016-07-06T04:59:27.672Z,97.24
2016-07-06T05:00:27.666Z,97.09
2016-07-06T05:01:27.649Z,96.89
2016-07-06T05:02:27.004Z,96.56
2016-07-06T05:03:27.614Z,96.75
2016-07-06T05:04:26.960Z,96.85
2016-07-06T05:05:26.950Z,97.19
2016-07-06T05:06:26.939Z,97.38
2016-07-06T05:07:26.923Z,96.75
2016-07-06T05:08:27.533Z,96.37
2016-07-06T05:09:27.524Z,96.37
2016-07-06T05:10:27.514Z,96.37
2016-07-06T05:11:26.870Z,95.89
2016-07-06T05:12:26.849Z,95.84
2016-07-06T05:13:27.467Z,95.6
2016-07-06T05:14:27.456Z,95.5
2016-07-06T05:15:27.439Z,95.6
2016-07-06T05:16:27.421Z,95.45
2016-07-06T05:17:26.779Z,95.89
2016-07-06T05:18:26.767Z,95.84
2016-07-06T05:19:27.386Z,96.37
2016-07-06T05:20:26.742Z,96.75
2016-07-06T05:21:27.359Z,95.89
2016-07-06T05:22:27.338Z,95.98
2016-07-06T05:23:27.330Z,96.08
2016-07-06T05:24:27.313Z,96.08
2016-07-06T05:25:26.664Z,96.37
2016-07-06T05:26:27.283Z,96.56
2016-07-06T05:27:26.632Z,95.98
2016-07-06T05:28:26.619Z,95.98
2016-07-06T05:29:26.605Z,96.66
2016-07-06T05:30:26.586Z,97.04
2016-07-06T05:31:27.212Z,97.19
2016-07-06T05:32:27.194Z,96.08
2016-07-06T05:33:27.181Z,96.27
2016-07-06T05:34:27.167Z,96.37
2016-07-06T05:35:27.154Z,95.79
2016-07-06T05:36:27.142Z,95.98
2016-07-06T05:37:27.123Z,96.17
2016-07-06T05:38:26.476Z,96.94
2016-07-06T05:39:27.086Z,96.94
2016-07-06T05:40:26.442Z,96.47
2016-07-06T05:41:27.063Z,96.37
2016-07-06T05:42:26.415Z,95.79
2016-07-06T05:43:27.037Z,96.08
2016-07-06T05:44:27.019Z,95.98
2016-07-06T05:45:26.367Z,95.75
2016-07-06T05:46:26.991Z,95.84
2016-07-06T05:47:26.976Z,95.94
2016-07-06T05:48:26.959Z,95.84
2016-07-06T05:49:26.954Z,95.4
2016-07-06T05:50:26.933Z,95.36
2016-07-06T05:51:26.285Z,94.78
2016-07-06T05:52:26.909Z,94.68
2016-07-06T05:53:26.888Z,94.78
2016-07-06T05:54:26.871Z,94.78
2016-07-06T05:55:26.864Z,95.84
2016-07-06T05:56:26.208Z,95.98
2016-07-06T05:57:26.828Z,96.27
2016-07-06T05:58:26.813Z,96.56
2016-07-06T05:59:26.800Z,96.27
2016-07-06T06:00:26.796Z,96.17
2016-07-06T06:01:26.135Z,95.98
2016-07-06T06:02:26.759Z,95.79
2016-07-06T06:03:26.737Z,95.45
2016-07-06T06:04:26.093Z,94.78
2016-07-06T06:05:26.717Z,95.07
2016-07-06T06:06:26.700Z,95.36
2016-07-06T06:07:26.681Z,95.07
2016-07-06T06:08:26.042Z,96.22
2016-07-06T06:09:26.654Z,97.04
2016-07-06T06:10:26.006Z,97.19
2016-07-06T06:11:25.990Z,96.85
2016-07-06T06:12:25.971Z,96.37
2016-07-06T06:13:26.594Z,95.6
2016-07-06T06:14:25.957Z,94.98
2016-07-06T06:15:26.568Z,95.17
2016-07-06T06:16:26.546Z,94.98
2016-07-06T06:17:25.898Z,94.59
2016-07-06T06:18:26.524Z,95.17
2016-07-06T06:19:26.503Z,95.65
2016-07-06T06:20:25.853Z,96.47
2016-07-06T06:21:25.850Z,96.47
2016-07-06T06:22:25.829Z,96.56
2016-07-06T06:23:25.816Z,96.47
2016-07-06T06:24:26.438Z,95.79
2016-07-06T06:25:26.421Z,96.13
2016-07-06T06:26:25.772Z,95.79
2016-07-06T06:27:25.762Z,95.7
2016-07-06T06:28:26.376Z,95.75
2016-07-06T06:29:26.365Z,95.94
2016-07-06T06:30:26.360Z,95.45
2016-07-06T06:31:26.326Z,94.78
2016-07-06T06:32:25.680Z,94.88
2016-07-06T06:33:25.668Z,94.59
2016-07-06T06:34:26.283Z,93.91
2016-07-06T06:35:26.274Z,94.64
2016-07-06T06:36:26.260Z,94.4
2016-07-06T06:37:26.246Z,94.45
2016-07-06T06:38:26.213Z,93.77
2016-07-06T06:39:25.581Z,93.48
2016-07-06T06:40:26.203Z,92.81
2016-07-06T06:41:26.182Z,92.43
2016-07-06T06:42:26.169Z,92.61
2016-07-06T06:43:26.155Z,92.33
2016-07-06T06:44:25.517Z,92.33
2016-07-06T06:45:26.132Z,92.57
2016-07-06T06:46:25.483Z,92.28
2016-07-06T06:47:26.091Z,91.99
2016-07-06T06:48:26.072Z,92.76
2016-07-06T06:49:25.443Z,92.43
2016-07-06T06:50:26.054Z,92.47
2016-07-06T06:51:26.045Z,92.38
2016-07-06T06:52:25.390Z,92.38
2016-07-06T06:53:26.005Z,92.28
2016-07-06T06:54:25.995Z,92.13
2016-07-06T06:55:25.985Z,91.89
2016-07-06T06:56:25.970Z,92.28
2016-07-06T06:57:25.312Z,92.18
2016-07-06T06:58:25.935Z,92.28
2016-07-06T06:59:25.294Z,91.8
2016-07-06T07:00:25.902Z,91.89
2016-07-06T07:01:25.891Z,91.89
2016-07-06T07:02:25.870Z,92.28
2016-07-06T07:03:25.226Z,91.94
2016-07-06T07:04:25.861Z,91.99
2016-07-06T07:05:25.198Z,91.7
2016-07-06T07:06:25.814Z,91.31
2016-07-06T07:07:25.811Z,91.31
2016-07-06T07:08:25.159Z,90.64
2016-07-06T07:09:25.157Z,91.51
2016-07-06T07:10:25.130Z,91.41
2016-07-06T07:11:25.743Z,91.51
2016-07-06T07:12:25.731Z,91.22
2016-07-06T07:13:25.091Z,91.07
2016-07-06T07:14:25.070Z,90.59
2016-07-06T07:15:25.699Z,90.69
2016-07-06T07:16:25.683Z,90.69
2016-07-06T07:17:25.029Z,91.27
2016-07-06T07:18:25.653Z,90.4
2016-07-06T07:19:25.007Z,90.88
2016-07-06T07:20:25.628Z,90.01
2016-07-06T07:21:24.984Z,89.24
2016-07-06T07:22:25.593Z,89.67
2016-07-06T07:23:25.578Z,88.95
2016-07-06T07:24:25.569Z,89.09
2016-07-06T07:25:24.918Z,89.58
2016-07-06T07:26:24.907Z,89.67
2016-07-06T07:27:25.527Z,88.9
2016-07-06T07:28:25.509Z,88.81
2016-07-06T07:29:24.867Z,88.9
2016-07-06T07:30:24.857Z,88.81
2016-07-06T07:31:25.476Z,88.81
2016-07-06T07:32:25.462Z,88.51
2016-07-06T07:33:25.441Z,88.04
2016-07-06T07:34:25.430Z,88.32
2016-07-06T07:35:24.776Z,88.37
2016-07-06T07:36:24.766Z,88.32
2016-07-06T07:37:24.745Z,87.88
2016-07-06T07:38:25.365Z,87.88
2016-07-06T07:39:25.364Z,87.88
2016-07-06T07:40:25.348Z,88.27
2016-07-06T07:41:25.329Z,88.08
2016-07-06T07:42:24.688Z,88.51
2016-07-06T07:43:24.665Z,88.61
2016-07-06T07:44:24.651Z,88.71
2016-07-06T07:45:24.646Z,89
2016-07-06T07:46:24.619Z,89
2016-07-06T07:47:24.611Z,88.32
2016-07-06T07:48:25.234Z,88.23
2016-07-06T07:49:25.216Z,88.13
2016-07-06T07:50:25.199Z,88.08
2016-07-06T07:51:25.187Z,88.37
2016-07-06T07:52:25.165Z,88.27
2016-07-06T07:53:25.161Z,87.7
2016-07-06T07:54:25.156Z,87.79
2016-07-06T07:55:24.504Z,86.92
2016-07-06T07:56:24.500Z,87.79
2016-07-06T07:57:25.105Z,87.7
2016-07-06T07:58:25.097Z,88.37
2016-07-06T07:59:24.448Z,87.3
2016-07-06T08:00:24.438Z,87.98
2016-07-06T08:01:24.422Z,88.75
2016-07-06T08:02:25.054Z,88.56
2016-07-06T08:03:25.037Z,88.08
2016-07-06T08:04:25.019Z,87.98
2016-07-06T08:05:24.370Z,87.88
2016-07-06T08:06:24.981Z,87.79
2016-07-06T08:07:24.984Z,88.56
2016-07-06T08:08:24.965Z,88.56
2016-07-06T08:09:24.958Z,88.71
2016-07-06T08:10:24.953Z,88.95
2016-07-06T08:11:24.936Z,88.56
2016-07-06T08:12:24.265Z,89.04
2016-07-06T08:13:24.894Z,89.53
2016-07-06T08:14:24.244Z,89.72
2016-07-06T08:15:24.860Z,89.19
2016-07-06T08:16:24.838Z,88.85
2016-07-06T08:17:24.825Z,88.27
2016-07-06T08:18:24.176Z,88.37
2016-07-06T08:19:24.798Z,89.14
2016-07-06T08:20:24.150Z,89.43
2016-07-06T08:21:24.132Z,88.46
2016-07-06T08:22:24.754Z,89.04
2016-07-06T08:23:25.095Z,89.53
2016-07-06T08:24:24.101Z,89.53
2016-07-06T08:25:24.080Z,89.43
2016-07-06T08:26:24.703Z,89.43
2016-07-06T08:27:24.073Z,89.04
2016-07-06T08:28:24.674Z,89.04
2016-07-06T08:29:24.672Z,89.53
2016-07-06T08:30:24.660Z,91.16
2016-07-06T08:31:24.016Z,92.27
2016-07-06T08:32:23.996Z,92.47
2016-07-06T08:33:24.609Z,92.08
2016-07-06T08:34:24.602Z,92.08
2016-07-06T08:35:24.585Z,91.99
2016-07-06T08:36:24.583Z,91.69
2016-07-06T08:37:23.929Z,91.26
2016-07-06T08:38:23.914Z,91.12
2016-07-06T08:39:23.906Z,90.39
2016-07-06T08:40:24.679Z,91.36
2016-07-06T08:41:24.025Z,91.41
2016-07-06T08:42:24.488Z,91.12
2016-07-06T08:43:24.481Z,90.58
2016-07-06T08:44:24.460Z,90.2
2016-07-06T08:45:24.657Z,90.2
2016-07-06T08:46:23.806Z,89.47
2016-07-06T08:47:23.788Z,90.15
2016-07-06T08:48:24.710Z,90.1
2016-07-06T08:49:23.767Z,90.58
2016-07-06T08:50:24.390Z,90.88
2016-07-06T08:51:24.373Z,90.97
2016-07-06T08:52:24.472Z,90.78
2016-07-06T08:53:24.343Z,90.1
2016-07-06T08:54:24.337Z,90.1
2016-07-06T08:55:24.320Z,90.39
2016-07-06T08:56:23.984Z,90.1
2016-07-06T08:57:23.664Z,89.33
2016-07-06T08:58:24.433Z,88.99
2016-07-06T08:59:24.264Z,88.6
2016-07-06T09:00:24.251Z,88.12
2016-07-06T09:01:24.252Z,88.36
2016-07-06T09:02:24.226Z,87.97
2016-07-06T09:03:24.217Z,88.65
2016-07-06T09:04:24.201Z,88.93
2016-07-06T09:05:23.551Z,89.03
2016-07-06T09:06:24.174Z,88.79
2016-07-06T09:07:24.165Z,88.89
2016-07-06T09:08:24.149Z,88.84
2016-07-06T09:09:24.132Z,88.36
2016-07-06T09:10:24.322Z,88.84
2016-07-06T09:11:24.111Z,89.18
2016-07-06T09:12:23.735Z,88.79
2016-07-06T09:13:24.132Z,88.36
2016-07-06T09:14:23.442Z,87.97
2016-07-06T09:15:23.424Z,87.53
2016-07-06T09:16:23.413Z,87.44
2016-07-06T09:17:24.289Z,87.97
2016-07-06T09:18:23.390Z,87.3
2016-07-06T09:19:24.004Z,87.73
2016-07-06T09:20:23.996Z,87.97
2016-07-06T09:21:23.341Z,88.07
2016-07-06T09:22:23.969Z,88.45
2016-07-06T09:23:23.952Z,88.17
2016-07-06T09:24:23.307Z,88.17
2016-07-06T09:25:23.957Z,87.59
2016-07-06T09:26:23.919Z,87.44
2016-07-06T09:27:23.265Z,87.05
2016-07-06T09:28:23.261Z,87.34
2016-07-06T09:29:23.878Z,87.53
2016-07-06T09:30:23.869Z,87.15
2016-07-06T09:31:23.848Z,87.92
2016-07-06T09:32:23.838Z,86.96
2016-07-06T09:33:23.829Z,87.15
2016-07-06T09:34:23.815Z,87.29
2016-07-06T09:35:23.799Z,87.24
2016-07-06T09:36:23.162Z,87.19
2016-07-06T09:37:23.772Z,86.76
2016-07-06T09:38:23.758Z,86.66
2016-07-06T09:39:23.754Z,86.61
2016-07-06T09:40:23.732Z,86.52
2016-07-06T09:41:23.713Z,86.52
2016-07-06T09:42:23.711Z,86.9
2016-07-06T09:43:23.700Z,86.86
2016-07-06T09:44:23.683Z,87.15
2016-07-06T09:45:23.040Z,86.96
2016-07-06T09:46:23.653Z,86.76
2016-07-06T09:47:23.643Z,86.47
2016-07-06T09:48:23.635Z,85.64
2016-07-06T09:49:23.628Z,85.11
2016-07-06T09:50:23.608Z,85.49
2016-07-06T09:51:22.973Z,85.64
2016-07-06T09:52:22.952Z,86.03
2016-07-06T09:53:22.940Z,85.55
2016-07-06T09:54:23.560Z,85.49
2016-07-06T09:55:23.545Z,84.78
2016-07-06T09:56:23.533Z,84.72
2016-07-06T09:57:23.522Z,85.11
2016-07-06T09:58:23.510Z,84.05
2016-07-06T09:59:23.497Z,83.37
2016-07-06T10:00:23.482Z,83.22
2016-07-06T10:01:22.834Z,83.03
2016-07-06T10:02:23.466Z,82.73
2016-07-06T10:03:23.688Z,83.7
2016-07-06T10:04:23.431Z,83.41
2016-07-06T10:05:22.791Z,83.12
2016-07-06T10:06:23.416Z,82.35
2016-07-06T10:07:23.395Z,82.15
2016-07-06T10:08:23.389Z,82.1
2016-07-06T10:09:23.054Z,81.42
2016-07-06T10:10:23.363Z,81.71
2016-07-06T10:11:23.402Z,82.2
2016-07-06T10:12:22.786Z,83.03
2016-07-06T10:13:23.323Z,83.12
2016-07-06T10:14:23.315Z,82.06
2016-07-06T10:15:23.316Z,81.9
2016-07-06T10:16:22.665Z,81.96
2016-07-06T10:17:23.271Z,82.25
2016-07-06T10:18:22.634Z,82.29
2016-07-06T10:19:22.625Z,81.81
2016-07-06T10:20:23.248Z,81.81
2016-07-06T10:21:22.606Z,81.9
2016-07-06T10:22:23.222Z,81.23
2016-07-06T10:23:23.213Z,82
2016-07-06T10:24:23.195Z,82.39
2016-07-06T10:25:23.190Z,81.27
2016-07-06T10:26:22.540Z,81.04
2016-07-06T10:27:23.160Z,80.46
2016-07-06T10:28:23.146Z,80.01
2016-07-06T10:29:23.137Z,80.59
2016-07-06T10:30:23.130Z,80.4
2016-07-06T10:31:23.114Z,81.27
2016-07-06T10:32:22.468Z,81.17
2016-07-06T10:33:22.456Z,81.62
2016-07-06T10:34:22.450Z,81.23
2016-07-06T10:35:23.068Z,80.79
2016-07-06T10:36:23.063Z,81.32
2016-07-06T10:37:22.417Z,81.42
2016-07-06T10:38:23.030Z,80.74
2016-07-06T10:39:23.027Z,81.07
2016-07-06T10:40:23.036Z,80.3
2016-07-06T10:41:22.998Z,79.43
2016-07-06T10:42:23.010Z,79.52
2016-07-06T10:43:22.968Z,79.62
2016-07-06T10:44:22.961Z,79.17
2016-07-06T10:45:22.314Z,77.92
2016-07-06T10:46:22.302Z,78.15
2016-07-06T10:47:22.292Z,76.89
2016-07-06T10:48:23.177Z,76.35
2016-07-06T10:49:22.902Z,75.48
2016-07-06T10:50:22.886Z,75.81
2016-07-06T10:51:22.878Z,75.81
2016-07-06T10:52:22.235Z,76.1
2016-07-06T10:53:22.852Z,76.1
2016-07-06T10:54:22.843Z,75.81
2016-07-06T10:55:22.828Z,75.61
2016-07-06T10:56:22.820Z,74.97
2016-07-06T10:57:22.806Z,74.29
2016-07-06T10:58:23.153Z,75.94
2016-07-06T10:59:23.493Z,74.68
2016-07-06T11:00:22.768Z,74
2016-07-06T11:01:22.768Z,74.49
2016-07-06T11:02:22.120Z,73.77
2016-07-06T11:03:22.734Z,73.61
2016-07-06T11:04:22.735Z,73.71
2016-07-06T11:05:22.087Z,72.49
2016-07-06T11:06:22.702Z,71.7
2016-07-06T11:07:22.692Z,70.77
2016-07-06T11:08:22.683Z,70.57
2016-07-06T11:09:22.036Z,70.9
2016-07-06T11:10:22.027Z,71.39
2016-07-06T11:11:22.022Z,71.1
2016-07-06T11:12:22.633Z,71.2
2016-07-06T11:13:21.994Z,70.45
2016-07-06T11:14:22.627Z,69.93
2016-07-06T11:15:22.601Z,68.8
2016-07-06T11:16:22.596Z,68.02
2016-07-06T11:17:21.953Z,67.96
2016-07-06T11:18:22.579Z,67.76
2016-07-06T11:19:21.927Z,67.18
2016-07-06T11:20:22.553Z,66.83
2016-07-06T11:21:22.545Z,66.44
2016-07-06T11:22:21.895Z,66.24
2016-07-06T11:23:22.520Z,67.02
2016-07-06T11:24:22.511Z,66.44
2016-07-06T11:25:21.860Z,67.02
2016-07-06T11:26:21.856Z,66.69
2016-07-06T11:27:21.847Z,66.73
2016-07-06T11:28:22.468Z,66.93
2016-07-06T11:29:21.821Z,66.83
2016-07-06T11:30:22.444Z,66.73
2016-07-06T11:31:22.435Z,65.98
2016-07-06T11:32:21.782Z,66.44
2016-07-06T11:33:22.411Z,67.02
2016-07-06T11:34:21.762Z,67.41
2016-07-06T11:35:22.379Z,66.69
2016-07-06T11:36:21.742Z,66.6
2016-07-06T11:37:22.367Z,66.79
2016-07-06T11:38:22.365Z,66.34
2016-07-06T11:39:22.358Z,66.73
2016-07-06T11:40:22.345Z,67.28
2016-07-06T11:41:22.339Z,65.95
2016-07-06T11:42:22.338Z,65.27
2016-07-06T11:43:22.472Z,65.79
2016-07-06T11:44:22.319Z,64.32
2016-07-06T11:45:22.315Z,64.84
2016-07-06T11:46:22.306Z,62.9
2016-07-06T11:47:22.286Z,63.42
2016-07-06T11:48:21.652Z,63.42
2016-07-06T11:49:21.640Z,63.09
2016-07-06T11:50:22.268Z,62.9
2016-07-06T11:51:22.257Z,61.11
2016-07-06T11:52:21.619Z,61.24
2016-07-06T11:53:22.250Z,61.14
2016-07-06T11:54:22.242Z,60.23
2016-07-06T11:55:21.603Z,58.73
2016-07-06T11:56:22.227Z,58.86
2016-07-06T11:57:21.589Z,58.53
2016-07-06T11:58:21.593Z,59.54
2016-07-06T11:59:21.581Z,59.61
2016-07-06T12:00:21.573Z,59.67
2016-07-06T12:01:22.207Z,59.97
2016-07-06T12:02:22.198Z,60.16
2016-07-06T12:03:22.193Z,59.67
2016-07-06T12:04:21.568Z,58.83
2016-07-06T12:05:22.188Z,55.93
2016-07-06T12:06:22.193Z,57.54
2016-07-06T12:07:22.172Z,56.35
2016-07-06T12:08:21.546Z,56.15
2016-07-06T12:09:22.166Z,56.47
2016-07-06T12:10:22.158Z,57.13
2016-07-06T12:11:22.169Z,56.9
2016-07-06T12:12:21.525Z,57.13
2016-07-06T12:13:22.167Z,58.37
2016-07-06T12:14:22.161Z,57.59
2016-07-06T12:15:21.517Z,59.93
2016-07-06T12:16:21.521Z,59.58
2016-07-06T12:17:22.147Z,59.09
2016-07-06T12:18:21.518Z,59.19
2016-07-06T12:19:22.142Z,59.7
2016-07-06T12:20:22.130Z,59.48
2016-07-06T12:21:22.138Z,58.6
2016-07-06T12:22:22.123Z,58.34
2016-07-06T12:23:22.129Z,58.44
2016-07-06T12:24:22.114Z,57.46
2016-07-06T12:25:21.476Z,57.13
2016-07-06T12:26:22.113Z,56.64
2016-07-06T12:27:21.471Z,55.27
2016-07-06T12:28:21.480Z,56.47
2016-07-06T12:29:21.482Z,56.15
2016-07-06T12:30:22.098Z,54.49
2016-07-06T12:31:21.467Z,55.03
2016-07-06T12:32:22.094Z,54.71
2016-07-06T12:33:22.094Z,54.52
2016-07-06T12:34:22.082Z,54.74
2016-07-06T12:35:21.444Z,54.71
2016-07-06T12:36:21.455Z,53.47
2016-07-06T12:37:21.451Z,53.59
2016-07-06T12:38:21.438Z,52.42
2016-07-06T12:39:22.100Z,52.51
2016-07-06T12:40:22.080Z,52.61
2016-07-06T12:41:22.066Z,52.32
2016-07-06T12:42:21.439Z,52.42
2016-07-06T12:43:21.425Z,51.15
2016-07-06T12:44:22.072Z,51.46
2016-07-06T12:45:22.063Z,51.37
2016-07-06T12:46:22.049Z,51.29
2016-07-06T12:47:21.422Z,52.69
2016-07-06T12:48:22.052Z,53.83
2016-07-06T12:49:22.043Z,53.15
2016-07-06T12:50:22.043Z,54.03
2016-07-06T12:51:21.405Z,52.73
2016-07-06T12:52:22.044Z,52.88
2016-07-06T12:53:22.031Z,52.64
2016-07-06T12:54:21.407Z,52.95